createdAt,value
2023-04-01T00:01:06.874Z,98.72
2023-04-01T00:03:34.771Z,98.57
2023-04-01T00:06:02.164Z,98.28
2023-04-01T00:08:29.555Z,99.06
2023-04-01T00:10:57.908Z,98.49
2023-04-01T00:13:27.170Z,98.93
2023-04-01T00:15:54.964Z,98.66
2023-04-01T00:18:23.326Z,98.61
2023-04-01T00:20:51.841Z,98.56
2023-04-01T00:23:19.236Z,98.88
2023-04-01T00:25:47.756Z,99.09
2023-04-01T00:28:16.851Z,99.06
2023-04-01T00:30:43.288Z,98.93
2023-04-01T00:33:10.063Z,98.40
2023-04-01T00:35:36.641Z,98.61
2023-04-01T00:38:04.111Z,99.33
2023-04-01T00:40:30.588Z,98.62
2023-04-01T00:42:57.493Z,98.35
2023-04-01T00:45:31.294Z,99.10
2023-04-01T00:48:02.454Z,99.23
2023-04-01T00:50:30.736Z,98.50
2023-04-01T00:52:58.283Z,98.27
2023-04-01T00:55:28.309Z,98.23
2023-04-01T00:57:58.007Z,99.18
2023-04-01T01:00:24.591Z,98.17
2023-04-01T01:02:52.139Z,98.00
2023-04-01T01:05:24.090Z,97.70
2023-04-01T01:08:07.340Z,98.37
2023-04-01T01:10:39.959Z,98.04
2023-04-01T01:13:35.032Z,98.00
2023-04-01T01:16:08.206Z,97.76
2023-04-01T01:18:44.849Z,97.78
2023-04-01T01:21:35.743Z,98.45
2023-04-01T01:24:05.010Z,98.29
2023-04-01T01:26:41.181Z,98.56
2023-04-01T01:29:42.615Z,97.95
2023-04-01T01:32:27.879Z,98.10
2023-04-01T01:35:09.373Z,98.22
2023-04-01T01:37:38.166Z,98.31
2023-04-01T01:40:08.525Z,98.47
2023-04-01T01:42:39.261Z,98.04
2023-04-01T01:45:08.345Z,98.29
2023-04-01T01:47:36.722Z,98.23
2023-04-01T01:50:05.828Z,98.05
2023-04-01T01:52:32.267Z,98.10
2023-04-01T01:54:59.404Z,98.31
2023-04-01T01:57:30.076Z,98.64
2023-04-01T02:00:09.043Z,98.71
2023-04-01T02:02:35.642Z,98.01
2023-04-01T02:05:03.800Z,98.96
2023-04-01T02:07:34.752Z,98.35
2023-04-01T02:10:01.420Z,98.87
2023-04-01T02:12:29.921Z,98.46
2023-04-01T02:15:06.633Z,98.81
2023-04-01T02:17:34.931Z,98.85
2023-04-01T02:20:06.944Z,98.66
2023-04-01T02:22:39.130Z,98.30
2023-04-01T02:25:13.419Z,98.84
2023-04-01T02:27:41.195Z,98.48
2023-04-01T02:30:08.173Z,99.02
2023-04-01T02:32:38.743Z,99.26
2023-04-01T02:35:08.392Z,98.48
2023-04-01T02:37:36.803Z,98.86
2023-04-01T02:40:08.260Z,98.87
2023-04-01T02:42:35.550Z,98.48
2023-04-01T02:45:02.554Z,99.01
2023-04-01T02:47:28.954Z,99.08
2023-04-01T02:49:58.823Z,99.27
2023-04-01T02:52:26.434Z,98.57
2023-04-01T02:54:53.551Z,98.97
2023-04-01T02:57:19.950Z,99.47
2023-04-01T02:59:46.572Z,98.89
2023-04-01T03:02:13.157Z,98.88
2023-04-01T03:04:39.603Z,98.83
2023-04-01T03:07:06.377Z,99.13
2023-04-01T03:09:32.776Z,99.08
2023-04-01T03:11:59.182Z,98.72
2023-04-01T03:14:25.607Z,99.20
2023-04-01T03:16:52.059Z,99.22
2023-04-01T03:19:18.402Z,98.75
2023-04-01T03:21:44.930Z,99.11
2023-04-01T03:24:11.534Z,98.79
2023-04-01T03:26:37.921Z,98.96
2023-04-01T03:29:04.310Z,98.75
2023-04-01T03:31:31.121Z,98.82
2023-04-01T03:33:57.568Z,99.66
2023-04-01T03:36:24.079Z,99.00
2023-04-01T03:38:50.830Z,99.16
2023-04-01T03:41:18.491Z,99.40
2023-04-01T03:43:45.737Z,99.71
2023-04-01T03:46:12.301Z,99.24
2023-04-01T03:48:38.689Z,99.17
2023-04-01T03:51:09.018Z,99.35
2023-04-01T03:53:35.399Z,99.25
2023-04-01T03:56:06.357Z,99.62
2023-04-01T03:58:32.806Z,99.37
2023-04-01T04:00:59.157Z,98.83
2023-04-01T04:03:25.625Z,99.62
2023-04-01T04:05:52.152Z,99.51
2023-04-01T04:08:18.778Z,99.00
2023-04-01T04:10:45.674Z,99.63
2023-04-01T04:13:12.108Z,98.69
2023-04-01T04:15:39.385Z,99.01
2023-04-01T04:18:06.045Z,99.64
2023-04-01T04:20:32.539Z,99.21
2023-04-01T04:22:58.958Z,98.80
2023-04-01T04:25:25.386Z,99.47
2023-04-01T04:27:51.769Z,99.00
2023-04-01T04:30:18.247Z,98.90
2023-04-01T04:32:44.733Z,99.70
2023-04-01T04:35:11.395Z,99.82
2023-04-01T04:37:37.729Z,99.20
2023-04-01T04:40:04.422Z,99.26
2023-04-01T04:42:30.818Z,99.67
2023-04-01T04:44:57.214Z,99.13
2023-04-01T04:47:23.923Z,98.75
2023-04-01T04:49:50.580Z,99.40
2023-04-01T04:52:16.971Z,99.35
2023-04-01T04:54:43.372Z,99.53
2023-04-01T04:57:09.817Z,99.29
2023-04-01T04:59:36.255Z,99.85
2023-04-01T05:02:02.790Z,99.09
2023-04-01T05:04:29.228Z,99.39
2023-04-01T05:06:55.936Z,99.40
2023-04-01T05:09:22.386Z,99.94
2023-04-01T05:11:48.873Z,99.11
2023-04-01T05:14:16.885Z,99.80
2023-04-01T05:16:43.449Z,99.24
2023-04-01T05:19:10.135Z,99.09
2023-04-01T05:21:36.615Z,99.41
2023-04-01T05:24:03.145Z,99.58
2023-04-01T05:26:29.488Z,100.00
2023-04-01T05:28:55.882Z,99.82
2023-04-01T05:31:22.409Z,99.70
2023-04-01T05:33:48.910Z,99.30
2023-04-01T05:36:17.180Z,99.50
2023-04-01T05:38:44.703Z,99.92
2023-04-01T05:41:11.150Z,99.63
2023-04-01T05:43:38.860Z,99.62
2023-04-01T05:46:05.501Z,99.30
2023-04-01T05:48:33.960Z,100.00
2023-04-01T05:51:00.393Z,99.73
2023-04-01T05:53:26.847Z,99.37
2023-04-01T05:55:53.187Z,99.96
2023-04-01T05:58:19.595Z,100.00
2023-04-01T06:00:46.843Z,99.65
2023-04-01T06:03:14.338Z,99.28
2023-04-01T06:05:43.376Z,100.00
2023-04-01T06:08:17.591Z,99.40
2023-04-01T06:10:51.885Z,99.26
2023-04-01T06:13:36.405Z,100.00
2023-04-01T06:16:12.613Z,99.36
2023-04-01T06:18:50.305Z,99.84
2023-04-01T06:21:29.533Z,99.46
2023-04-01T06:24:20.013Z,99.73
2023-04-01T06:27:04.107Z,99.85
2023-04-01T06:29:44.799Z,99.63
2023-04-01T06:32:43.570Z,99.97
2023-04-01T06:35:23.067Z,99.76
2023-04-01T06:38:06.022Z,99.93
2023-04-01T06:40:41.394Z,99.65
2023-04-01T06:43:29.215Z,99.24
2023-04-01T06:45:59.233Z,99.66
2023-04-01T06:48:54.705Z,99.38
2023-04-01T06:51:58.867Z,99.83
2023-04-01T06:54:42.081Z,99.50
2023-04-01T06:57:20.530Z,99.08
2023-04-01T06:59:48.912Z,99.73
2023-04-01T07:02:26.640Z,99.59
2023-04-01T07:04:56.753Z,99.63
2023-04-01T07:07:36.047Z,99.53
2023-04-01T07:10:10.167Z,99.52
2023-04-01T07:12:50.946Z,99.39
2023-04-01T07:15:23.162Z,98.95
2023-04-01T07:17:56.527Z,98.81
2023-04-01T07:20:31.818Z,99.23
2023-04-01T07:23:05.267Z,98.66
2023-04-01T07:25:36.646Z,99.04
2023-04-01T07:28:14.616Z,99.07
2023-04-01T07:31:12.529Z,98.51
2023-04-01T07:34:06.122Z,98.68
2023-04-01T07:36:43.095Z,98.36
2023-04-01T07:39:21.548Z,98.14
2023-04-01T07:41:47.836Z,98.48
2023-04-01T07:44:51.478Z,98.27
2023-04-01T07:47:34.226Z,98.09
2023-04-01T07:50:14.408Z,98.35
2023-04-01T07:52:49.516Z,98.22
2023-04-01T07:55:37.796Z,98.29
2023-04-01T07:58:04.121Z,98.38
2023-04-01T08:00:55.135Z,98.04
2023-04-01T08:03:32.214Z,98.10
2023-04-01T08:06:10.710Z,98.51
2023-04-01T08:09:08.527Z,98.72
2023-04-01T08:11:55.777Z,98.44
2023-04-01T08:14:24.839Z,98.50
2023-04-01T08:17:06.213Z,98.10
2023-04-01T08:19:57.681Z,98.25
2023-04-01T08:22:36.229Z,98.16
2023-04-01T08:25:08.702Z,98.28
2023-04-01T08:27:42.584Z,97.79
2023-04-01T08:30:26.832Z,98.00
2023-04-01T08:32:56.146Z,98.04
2023-04-01T08:35:38.878Z,98.12
2023-04-01T08:38:17.411Z,98.12
2023-04-01T08:40:59.047Z,97.93
2023-04-01T08:44:03.033Z,98.20
2023-04-01T08:46:56.808Z,97.97
2023-04-01T08:49:37.970Z,97.70
2023-04-01T08:52:23.211Z,97.83
2023-04-01T08:55:09.798Z,97.48
2023-04-01T08:58:02.679Z,97.74
2023-04-01T09:00:35.672Z,97.22
2023-04-01T09:03:26.811Z,97.53
2023-04-01T09:06:31.056Z,97.38
2023-04-01T09:09:26.556Z,97.62
2023-04-01T09:11:55.765Z,97.32
2023-04-01T09:14:25.369Z,97.42
2023-04-01T09:17:19.648Z,97.03
2023-04-01T09:20:11.075Z,96.94
2023-04-01T09:22:43.444Z,96.76
2023-04-01T09:25:39.578Z,96.84
2023-04-01T09:28:18.717Z,96.51
2023-04-01T09:30:55.766Z,96.29
2023-04-01T09:33:50.609Z,96.74
2023-04-01T09:36:45.635Z,96.38
2023-04-01T09:39:37.253Z,96.51
2023-04-01T09:42:31.349Z,96.23
2023-04-01T09:45:30.244Z,95.83
2023-04-01T09:48:52.475Z,95.05
2023-04-01T09:51:50.889Z,94.46
2023-04-01T09:54:27.246Z,94.10
2023-04-01T09:57:24.452Z,94.29
2023-04-01T10:00:49.396Z,93.74
2023-04-01T10:03:52.748Z,92.73
2023-04-01T10:06:49.270Z,91.91
2023-04-01T10:09:33.093Z,90.74
2023-04-01T10:12:02.970Z,88.43
2023-04-01T10:14:42.553Z,87.00
2023-04-01T10:17:35.254Z,88.19
2023-04-01T10:20:19.932Z,88.08
2023-04-01T10:23:05.926Z,88.50
2023-04-01T10:26:02.793Z,88.64
2023-04-01T10:28:36.870Z,88.99
2023-04-01T10:31:28.007Z,90.12
2023-04-01T10:34:25.205Z,90.56
2023-04-01T10:37:36.818Z,90.36
2023-04-01T10:40:40.267Z,90.91
2023-04-01T10:43:21.917Z,91.07
2023-04-01T10:46:17.067Z,91.12
2023-04-01T10:48:57.913Z,91.67
2023-04-01T10:52:01.954Z,91.21
2023-04-01T10:54:47.081Z,90.13
2023-04-01T10:57:51.119Z,88.45
2023-04-01T11:00:55.531Z,88.61
2023-04-01T11:03:52.282Z,88.21
2023-04-01T11:07:01.039Z,88.61
2023-04-01T11:10:09.017Z,89.71
2023-04-01T11:12:37.989Z,90.62
2023-04-01T11:15:41.052Z,91.62
2023-04-01T11:18:41.796Z,92.03
2023-04-01T11:21:37.468Z,92.12
2023-04-01T11:24:10.012Z,92.29
2023-04-01T11:27:10.126Z,91.63
2023-04-01T11:29:53.090Z,91.23
2023-04-01T11:32:46.798Z,91.11
2023-04-01T11:35:29.316Z,90.98
2023-04-01T11:38:27.991Z,90.16
2023-04-01T11:41:28.580Z,90.08
2023-04-01T11:44:17.936Z,90.50
2023-04-01T11:47:22.195Z,90.54
2023-04-01T11:50:23.563Z,90.94
2023-04-01T11:53:08.148Z,91.52
2023-04-01T11:56:02.406Z,91.74
2023-04-01T11:58:43.956Z,91.61
2023-04-01T12:01:16.274Z,92.15
2023-04-01T12:04:20.347Z,91.74
2023-04-01T12:07:21.630Z,92.08
2023-04-01T12:09:51.347Z,92.16
2023-04-01T12:12:21.569Z,92.34
2023-04-01T12:15:19.010Z,92.15
2023-04-01T12:18:16.344Z,92.13
2023-04-01T12:20:58.474Z,91.63
2023-04-01T12:23:44.256Z,91.59
2023-04-01T12:26:36.628Z,92.31
2023-04-01T12:29:37.484Z,92.28
2023-04-01T12:32:38.034Z,92.34
2023-04-01T12:35:16.636Z,91.96
2023-04-01T12:37:49.634Z,91.98
2023-04-01T12:40:25.574Z,91.93
2023-04-01T12:43:12.244Z,91.63
2023-04-01T12:45:56.431Z,91.15
2023-04-01T12:48:46.550Z,91.48
2023-04-01T12:51:34.170Z,91.10
2023-04-01T12:54:11.708Z,90.22
2023-04-01T12:57:03.343Z,90.18
2023-04-01T12:59:52.463Z,90.72
2023-04-01T13:02:39.608Z,90.21
2023-04-01T13:05:20.668Z,90.17
2023-04-01T13:08:05.451Z,90.30
2023-04-01T13:10:53.502Z,90.26
2023-04-01T13:13:47.882Z,90.38
2023-04-01T13:16:37.619Z,91.17
2023-04-01T13:19:15.008Z,90.99
2023-04-01T13:22:00.246Z,91.65
2023-04-01T13:24:59.744Z,92.06
2023-04-01T13:27:41.593Z,92.12
2023-04-01T13:30:31.659Z,92.79
2023-04-01T13:33:13.997Z,93.56
2023-04-01T13:36:17.043Z,93.31
2023-04-01T13:39:27.716Z,93.75
2023-04-01T13:42:13.889Z,93.65
2023-04-01T13:44:52.607Z,93.30
2023-04-01T13:47:26.094Z,93.44
2023-04-01T13:50:11.477Z,93.68
2023-04-01T13:52:58.620Z,94.05
2023-04-01T13:55:27.894Z,93.75
2023-04-01T13:58:09.482Z,93.74
2023-04-01T14:00:57.854Z,94.08
2023-04-01T14:04:01.970Z,94.24
2023-04-01T14:07:04.204Z,94.32
2023-04-01T14:10:01.411Z,94.34
2023-04-01T14:12:45.664Z,94.56
2023-04-01T14:16:00.790Z,95.03
2023-04-01T14:19:04.312Z,94.48
2023-04-01T14:21:38.635Z,94.91
2023-04-01T14:24:15.243Z,95.10
2023-04-01T14:27:03.353Z,94.64
2023-04-01T14:29:40.958Z,94.67
2023-04-01T14:32:28.393Z,94.65
2023-04-01T14:35:23.369Z,94.45
2023-04-01T14:38:03.857Z,94.86
2023-04-01T14:40:45.572Z,94.70
2023-04-01T14:43:24.778Z,94.55
2023-04-01T14:46:20.505Z,94.79
2023-04-01T14:49:22.158Z,95.17
2023-04-01T14:51:49.385Z,94.84
2023-04-01T14:54:25.250Z,94.82
2023-04-01T14:57:11.086Z,95.02
2023-04-01T14:59:41.824Z,95.06
2023-04-01T15:02:27.113Z,95.09
2023-04-01T15:05:00.787Z,95.37
2023-04-01T15:07:52.116Z,95.41
2023-04-01T15:10:36.875Z,95.03
2023-04-01T15:13:38.011Z,95.38
2023-04-01T15:16:28.522Z,95.10
2023-04-01T15:19:01.052Z,94.94
2023-04-01T15:21:54.742Z,94.51
2023-04-01T15:24:46.926Z,94.82
2023-04-01T15:27:29.865Z,94.61
2023-04-01T15:29:58.771Z,94.44
2023-04-01T15:32:28.213Z,94.20
2023-04-01T15:35:04.367Z,93.80
2023-04-01T15:37:56.304Z,94.18
2023-04-01T15:40:43.337Z,94.50
2023-04-01T15:43:12.736Z,94.59
2023-04-01T15:45:53.560Z,94.47
2023-04-01T15:48:36.324Z,94.53
2023-04-01T15:51:13.729Z,94.52
2023-04-01T15:54:16.218Z,94.40
2023-04-01T15:57:01.275Z,94.40
2023-04-01T16:00:07.221Z,94.44
2023-04-01T16:02:47.965Z,95.06
2023-04-01T16:05:57.331Z,95.15
2023-04-01T16:08:27.021Z,94.99
2023-04-01T16:11:07.255Z,94.48
2023-04-01T16:13:47.369Z,95.11
2023-04-01T16:16:16.713Z,94.96
2023-04-01T16:18:51.775Z,94.63
2023-04-01T16:21:38.268Z,95.20
2023-04-01T16:24:25.757Z,95.28
2023-04-01T16:27:13.300Z,95.13
2023-04-01T16:29:40.384Z,95.78
2023-04-01T16:32:22.576Z,95.60
2023-04-01T16:35:06.760Z,95.50
2023-04-01T16:38:14.741Z,95.22
2023-04-01T16:40:53.222Z,95.61
2023-04-01T16:43:27.961Z,95.19
2023-04-01T16:46:20.452Z,95.88
2023-04-01T16:49:11.959Z,95.19
2023-04-01T16:51:48.126Z,95.27
2023-04-01T16:54:31.579Z,95.64
2023-04-01T16:57:09.920Z,95.53
2023-04-01T16:59:41.666Z,94.92
2023-04-01T17:02:08.019Z,94.97
2023-04-01T17:04:44.383Z,95.40
2023-04-01T17:07:28.950Z,95.46
2023-04-01T17:10:26.382Z,95.44
2023-04-01T17:13:07.209Z,94.72
2023-04-01T17:16:06.019Z,95.12
2023-04-01T17:19:08.787Z,95.02
2023-04-01T17:21:44.440Z,94.88
2023-04-01T17:24:28.484Z,94.93
2023-04-01T17:27:28.986Z,94.85
2023-04-01T17:30:01.393Z,94.73
2023-04-01T17:33:01.010Z,95.50
2023-04-01T17:35:42.394Z,95.35
2023-04-01T17:38:15.062Z,95.69
2023-04-01T17:40:57.169Z,95.02
2023-04-01T17:43:40.526Z,95.12
2023-04-01T17:46:32.920Z,94.99
2023-04-01T17:49:39.632Z,95.36
2023-04-01T17:52:20.144Z,95.59
2023-04-01T17:55:00.982Z,95.56
2023-04-01T17:57:55.632Z,95.56
2023-04-01T18:00:54.016Z,95.08
2023-04-01T18:03:43.903Z,95.17
2023-04-01T18:06:48.527Z,94.70
2023-04-01T18:09:52.039Z,94.92
2023-04-01T18:12:30.437Z,94.90
2023-04-01T18:15:22.387Z,94.58
2023-04-01T18:18:27.630Z,95.02
2023-04-01T18:21:42.174Z,94.60
2023-04-01T18:24:30.520Z,94.52
2023-04-01T18:27:05.260Z,94.49
2023-04-01T18:29:48.230Z,93.98
2023-04-01T18:32:24.327Z,94.42
2023-04-01T18:34:59.969Z,94.36
2023-04-01T18:37:32.451Z,94.80
2023-04-01T18:40:12.796Z,94.75
2023-04-01T18:42:51.577Z,94.20
2023-04-01T18:45:34.887Z,94.09
2023-04-01T18:48:38.617Z,93.99
2023-04-01T18:51:17.582Z,94.63
2023-04-01T18:53:56.226Z,94.18
2023-04-01T18:56:41.385Z,95.05
2023-04-01T18:59:20.142Z,94.47
2023-04-01T19:02:14.607Z,93.58
2023-04-01T19:04:47.556Z,94.60
2023-04-01T19:07:38.361Z,94.11
2023-04-01T19:10:49.349Z,93.56
2023-04-01T19:13:53.715Z,94.04
2023-04-01T19:16:20.255Z,93.95
2023-04-01T19:18:56.333Z,94.31
2023-04-01T19:21:38.569Z,93.87
2023-04-01T19:24:26.837Z,93.76
2023-04-01T19:27:17.933Z,93.60
2023-04-01T19:29:59.900Z,93.65
2023-04-01T19:33:02.147Z,93.50
2023-04-01T19:35:47.782Z,94.02
2023-04-01T19:38:17.922Z,93.93
2023-04-01T19:41:14.156Z,94.41
2023-04-01T19:43:51.317Z,93.56
2023-04-01T19:46:34.176Z,93.67
2023-04-01T19:49:13.097Z,93.95
2023-04-01T19:52:01.316Z,94.10
2023-04-01T19:54:50.606Z,94.10
2023-04-01T19:57:39.239Z,93.62
2023-04-01T20:00:17.568Z,93.72
2023-04-01T20:03:22.522Z,94.13
2023-04-01T20:06:02.545Z,94.70
2023-04-01T20:08:53.937Z,94.58
2023-04-01T20:11:41.396Z,94.73
2023-04-01T20:14:18.398Z,94.64
2023-04-01T20:16:51.986Z,93.74
2023-04-01T20:19:46.009Z,94.67
2023-04-01T20:22:29.434Z,93.68
2023-04-01T20:25:02.621Z,94.04
2023-04-01T20:27:36.689Z,94.48
2023-04-01T20:30:18.230Z,94.23
2023-04-01T20:33:08.364Z,93.93
2023-04-01T20:35:45.034Z,93.45
2023-04-01T20:38:48.722Z,93.44
2023-04-01T20:41:24.339Z,94.16
2023-04-01T20:44:05.977Z,93.96
2023-04-01T20:46:47.057Z,93.51
2023-04-01T20:49:29.548Z,93.86
2023-04-01T20:52:19.498Z,93.38
2023-04-01T20:55:06.533Z,93.49
2023-04-01T20:57:45.149Z,93.71
2023-04-01T21:00:23.228Z,93.40
2023-04-01T21:03:20.659Z,93.89
2023-04-01T21:05:59.159Z,93.79
2023-04-01T21:08:37.841Z,93.98
2023-04-01T21:11:29.312Z,94.26
2023-04-01T21:14:27.593Z,93.68
2023-04-01T21:17:20.881Z,94.18
2023-04-01T21:20:10.528Z,94.19
2023-04-01T21:23:04.886Z,94.05
2023-04-01T21:25:49.438Z,94.42
2023-04-01T21:28:45.214Z,93.80
2023-04-01T21:31:33.131Z,94.82
2023-04-01T21:33:59.450Z,94.69
2023-04-01T21:36:58.384Z,94.93
2023-04-01T21:39:55.242Z,94.95
2023-04-01T21:42:27.388Z,94.87
2023-04-01T21:45:02.831Z,94.77
2023-04-01T21:48:06.949Z,94.72
2023-04-01T21:50:46.269Z,95.07
2023-04-01T21:53:37.293Z,94.71
2023-04-01T21:56:26.118Z,95.38
2023-04-01T21:59:14.569Z,95.32
2023-04-01T22:02:18.244Z,95.27
2023-04-01T22:05:08.224Z,95.38
2023-04-01T22:07:47.547Z,95.35
2023-04-01T22:10:36.062Z,95.27
2023-04-01T22:13:20.125Z,94.84
2023-04-01T22:15:52.261Z,94.46
2023-04-01T22:18:34.617Z,94.61
2023-04-01T22:21:30.227Z,94.47
2023-04-01T22:24:15.195Z,95.09
2023-04-01T22:26:52.388Z,94.85
2023-04-01T22:29:29.796Z,94.48
2023-04-01T22:32:18.075Z,94.40
2023-04-01T22:35:23.426Z,95.14
2023-04-01T22:38:06.128Z,94.55
2023-04-01T22:40:40.693Z,94.62
2023-04-01T22:43:08.856Z,94.90
2023-04-01T22:45:54.927Z,95.11
2023-04-01T22:48:42.015Z,95.17
2023-04-01T22:51:23.395Z,95.07
2023-04-01T22:54:14.168Z,94.80
2023-04-01T22:56:46.986Z,94.34
2023-04-01T22:59:26.317Z,94.21
2023-04-01T23:01:59.802Z,94.54
2023-04-01T23:04:32.548Z,94.75
2023-04-01T23:07:04.577Z,94.76
2023-04-01T23:09:34.649Z,94.45
2023-04-01T23:12:12.509Z,94.71
2023-04-01T23:14:51.995Z,94.37
2023-04-01T23:17:36.165Z,94.41
2023-04-01T23:20:21.598Z,94.67
2023-04-01T23:23:12.937Z,94.53
2023-04-01T23:26:27.318Z,94.73
2023-04-01T23:29:00.352Z,94.24
2023-04-01T23:31:37.804Z,94.40
2023-04-01T23:34:12.930Z,94.84
2023-04-01T23:36:48.700Z,94.68
2023-04-01T23:39:24.085Z,94.25
2023-04-01T23:41:54.521Z,94.76
2023-04-01T23:44:21.671Z,94.48
2023-04-01T23:46:49.943Z,94.74
2023-04-01T23:49:24.421Z,94.42
2023-04-01T23:51:55.525Z,94.26
2023-04-01T23:54:32.794Z,94.51
2023-04-01T23:56:59.991Z,94.29
2023-04-01T23:59:33.078Z,93.78
